Time;durP1;ratioP1;P1;durP2;ratioP2;P2;SDS_P1;SDS_P2;PMS_P1;PMS_P2;Temp;Humidity;BMP_temperature;BMP_pressure;BME280_temperature;BME280_humidity;BME280_pressure;Samples;Min_cycle;Max_cycle;Signal;HPM_P1;HPM_P2
2021/07/05 00:00:20;;;;;;;1.42;1.33;;;;;;;13.20;96.30;95327.75;5058907;28;20037;-75
2021/07/05 00:03:06;;;;;;;1.50;1.20;;;;;;;13.18;96.19;95332.56;5063461;28;20052;-75
2021/07/05 00:05:32;;;;;;;2.83;1.50;;;;;;;13.18;96.64;95332.56;5061666;28;20073;-75
2021/07/05 00:07:57;;;;;;;2.50;1.33;;;;;;;13.18;96.46;95333.31;5070221;28;20036;-75
2021/07/05 00:10:25;;;;;;;2.58;1.20;;;;;;;13.18;95.94;95329.91;5063497;28;20112;-75
2021/07/05 00:12:51;;;;;;;2.70;1.30;;;;;;;13.14;96.37;95331.56;5059786;28;20044;-75
2021/07/05 00:15:20;;;;;;;1.30;1.20;;;;;;;13.13;96.53;95343.19;5073900;28;20044;-75
2021/07/05 00:17:50;;;;;;;3.35;1.60;;;;;;;13.17;96.24;95341.53;5063272;28;20498;-75
2021/07/05 00:20:17;;;;;;;1.85;1.30;;;;;;;13.16;96.07;95332.84;5064634;28;20040;-75
2021/07/05 00:22:43;;;;;;;2.30;1.40;;;;;;;13.12;96.46;95336.38;5056817;28;20506;-74
2021/07/05 00:25:09;;;;;;;2.42;1.42;;;;;;;13.14;96.11;95331.56;5078690;28;20039;-75
2021/07/05 00:27:34;;;;;;;5.47;1.48;;;;;;;13.16;96.17;95345.28;5065991;28;20048;-75
2021/07/05 00:30:00;;;;;;;1.48;1.35;;;;;;;13.14;96.36;95342.13;5060600;28;20041;-75
2021/07/05 00:32:25;;;;;;;2.90;1.48;;;;;;;13.15;95.66;95349.00;5069304;28;20552;-75
2021/07/05 00:34:51;;;;;;;1.95;1.40;;;;;;;13.13;95.90;95340.56;5058870;28;20434;-75
2021/07/05 00:37:17;;;;;;;2.30;1.60;;;;;;;13.12;96.29;95344.28;5061513;28;20033;-75
2021/07/05 00:39:42;;;;;;;1.50;1.40;;;;;;;13.04;96.04;95331.72;5071652;28;20048;-75
2021/07/05 00:42:08;;;;;;;3.08;1.35;;;;;;;13.06;95.95;95337.50;5066123;28;20041;-75
2021/07/05 00:44:33;;;;;;;3.08;1.30;;;;;;;13.02;96.31;95328.59;5068377;28;20097;-75
2021/07/05 00:46:59;;;;;;;3.80;1.55;;;;;;;12.90;96.78;95321.91;5065454;28;20033;-75
2021/07/05 00:49:25;;;;;;;1.55;1.40;;;;;;;12.82;97.41;95319.91;5064500;28;20047;-75
2021/07/05 00:51:51;;;;;;;2.47;1.60;;;;;;;12.80;97.03;95316.75;5059574;28;20048;-75
2021/07/05 00:54:16;;;;;;;2.78;1.35;;;;;;;12.76;97.86;95329.00;5080820;28;20046;-75
2021/07/05 00:56:42;;;;;;;1.80;1.45;;;;;;;12.76;97.16;95331.63;5067217;28;20237;-75
2021/07/05 00:59:08;;;;;;;2.30;1.42;;;;;;;12.68;97.97;95325.13;5074418;28;20106;-75
2021/07/05 01:01:34;;;;;;;6.95;1.70;;;;;;;12.62;98.12;95327.06;5068066;28;20045;-75
2021/07/05 01:03:59;;;;;;;1.90;1.50;;;;;;;12.56;98.43;95322.94;5071124;28;20494;-75
2021/07/05 01:06:26;;;;;;;2.60;1.55;;;;;;;12.55;98.18;95324.00;5070268;28;20036;-75
2021/07/05 01:08:52;;;;;;;3.08;1.70;;;;;;;12.51;98.23;95320.34;5072122;28;20051;-75
2021/07/05 01:11:20;;;;;;;4.80;1.70;;;;;;;12.48;98.24;95326.22;5057718;28;20037;-75
2021/07/05 01:13:46;;;;;;;3.55;1.75;;;;;;;12.45;98.96;95332.06;5062512;28;20115;-75
2021/07/05 01:16:11;;;;;;;2.08;1.60;;;;;;;12.41;98.96;95323.13;5054415;28;20597;-75
2021/07/05 01:18:37;;;;;;;2.75;1.70;;;;;;;12.42;99.06;95316.81;5071436;28;20067;-75
2021/07/05 01:21:03;;;;;;;2.50;1.77;;;;;;;12.39;98.65;95322.66;5075055;28;20522;-75
2021/07/05 01:23:29;;;;;;;1.52;1.40;;;;;;;12.43;98.31;95334.22;5068892;28;20079;-75
2021/07/05 01:25:55;;;;;;;4.18;1.50;;;;;;;12.47;98.04;95328.06;5073303;28;20040;-75
2021/07/05 01:28:21;;;;;;;4.22;1.70;;;;;;;12.44;98.76;95325.22;5074433;28;20032;-75
2021/07/05 01:30:47;;;;;;;2.35;1.65;;;;;;;12.46;98.36;95328.38;5068692;28;20124;-75
2021/07/05 01:33:15;;;;;;;2.55;1.50;;;;;;;12.47;98.24;95319.38;5057107;28;20059;-75
2021/07/05 01:35:41;;;;;;;4.95;1.70;;;;;;;12.46;98.68;95313.31;5067755;28;20040;-75
2021/07/05 01:38:12;;;;;;;3.95;1.50;;;;;;;12.51;98.27;95320.34;5070417;28;20055;-75
2021/07/05 01:40:38;;;;;;;1.90;1.60;;;;;;;12.48;98.20;95315.66;5064555;28;20051;-75
2021/07/05 01:43:04;;;;;;;3.67;1.70;;;;;;;12.45;98.63;95316.22;5060885;28;20056;-75
2021/07/05 01:45:33;;;;;;;1.88;1.42;;;;;;;12.47;98.80;95314.09;5060489;28;20033;-75
2021/07/05 01:48:00;;;;;;;3.30;1.88;;;;;;;12.49;98.86;95311.94;5070759;28;20036;-75
2021/07/05 01:50:26;;;;;;;2.33;1.60;;;;;;;12.50;99.29;95313.53;5060872;28;20504;-75
2021/07/05 01:52:53;;;;;;;2.33;1.65;;;;;;;12.50;99.84;95313.53;5059751;28;20041;-75
2021/07/05 01:55:30;;;;;;;3.00;1.70;;;;;;;12.54;99.21;95311.88;5065052;28;20036;-75
2021/07/05 01:57:57;;;;;;;3.95;1.60;;;;;;;12.52;99.68;95318.53;5065312;28;20043;-75
2021/07/05 02:00:23;;;;;;;4.57;1.70;;;;;;;12.50;99.09;95318.00;5070642;28;20041;-75
2021/07/05 02:02:52;;;;;;;4.47;1.90;;;;;;;12.52;99.37;95321.94;5072041;28;20090;-75
2021/07/05 02:05:17;;;;;;;4.85;1.70;;;;;;;12.54;99.06;95319.81;5076335;28;20036;-75
2021/07/05 02:07:45;;;;;;;1.98;1.70;;;;;;;12.54;99.17;95314.53;5079484;28;20132;-75
2021/07/05 02:10:13;;;;;;;5.00;1.80;;;;;;;12.59;99.21;95317.06;5071966;28;20064;-75
2021/07/05 02:12:40;;;;;;;2.08;1.50;;;;;;;12.67;98.62;95314.84;5060601;28;20446;-75
2021/07/05 02:15:09;;;;;;;2.67;1.80;;;;;;;12.63;98.52;95312.78;5069346;28;20044;-75
2021/07/05 02:17:35;;;;;;;2.83;1.52;;;;;;;12.69;98.94;95299.53;5068963;28;20135;-75
2021/07/05 02:20:04;;;;;;;2.28;1.80;;;;;;;12.67;98.63;95306.94;5066456;28;20120;-75
2021/07/05 02:22:29;;;;;;;3.88;1.83;;;;;;;12.68;98.47;95305.88;5066167;28;20048;-75
2021/07/05 02:24:55;;;;;;;3.55;1.80;;;;;;;12.67;98.58;95296.38;5066930;28;20110;-75
2021/07/05 02:27:20;;;;;;;2.10;1.70;;;;;;;12.69;98.62;95296.91;5067821;28;20048;-75
2021/07/05 02:29:46;;;;;;;18.05;1.90;;;;;;;12.68;98.97;95303.25;5063851;28;20037;-75
2021/07/05 02:32:11;;;;;;;5.47;1.70;;;;;;;12.70;99.15;95301.09;5068139;28;20044;-75
2021/07/05 02:34:37;;;;;;;3.38;1.70;;;;;;;12.78;98.30;95303.06;5078231;28;20046;-75
2021/07/05 02:37:03;;;;;;;4.68;1.77;;;;;;;12.79;98.21;95304.66;5063813;28;20051;-75
2021/07/05 02:39:29;;;;;;;3.33;1.80;;;;;;;12.74;98.60;95304.72;5068442;28;20116;-75
2021/07/05 02:41:55;;;;;;;3.30;1.80;;;;;;;12.77;98.46;95306.78;5070408;28;20040;-75
2021/07/05 02:44:20;;;;;;;3.95;1.60;;;;;;;12.78;98.50;95313.63;5065903;28;20541;-75
2021/07/05 02:46:46;;;;;;;2.35;1.70;;;;;;;12.76;98.63;95321.84;5060400;28;20048;-75
2021/07/05 02:49:12;;;;;;;2.30;1.73;;;;;;;12.77;98.67;95314.69;5079214;28;20038;-75
2021/07/05 02:51:37;;;;;;;3.25;1.92;;;;;;;12.75;98.93;95322.13;5064791;28;20086;-75
2021/07/05 02:54:04;;;;;;;4.07;2.20;;;;;;;12.73;99.75;95303.16;5069107;28;20511;-75
2021/07/05 02:56:29;;;;;;;3.28;1.88;;;;;;;12.68;99.82;95304.00;5065757;28;20052;-75
2021/07/05 02:58:55;;;;;;;2.63;1.83;;;;;;;12.69;99.83;95310.09;5056877;28;20120;-75
2021/07/05 03:01:22;;;;;;;3.45;1.80;;;;;;;12.70;99.51;95306.38;5069450;28;20414;-75
2021/07/05 03:03:48;;;;;;;3.88;1.92;;;;;;;12.69;99.20;95312.72;5068270;28;20041;-75
2021/07/05 03:06:14;;;;;;;3.38;2.25;;;;;;;12.64;100.00;95319.66;5064605;28;20589;-75
2021/07/05 03:08:40;;;;;;;3.80;2.00;;;;;;;12.65;100.00;95320.44;5050699;28;20036;-75
2021/07/05 03:11:08;;;;;;;4.10;1.70;;;;;;;12.56;100.00;95301.81;5066005;28;20044;-75
2021/07/05 03:13:34;;;;;;;4.97;2.15;;;;;;;12.53;100.00;95286.56;5081054;28;20036;-75
2021/07/05 03:15:59;;;;;;;4.55;2.00;;;;;;;12.49;100.00;95290.84;5059994;28;20478;-75
2021/07/05 03:18:25;;;;;;;2.35;1.67;;;;;;;12.43;100.00;95292.75;5066142;28;20497;-75
2021/07/05 03:20:51;;;;;;;4.10;2.20;;;;;;;12.37;100.00;95301.03;5068077;28;20041;-75
2021/07/05 03:23:19;;;;;;;2.90;1.90;;;;;;;12.27;100.00;95300.09;5063855;28;20119;-75
2021/07/05 03:25:45;;;;;;;6.15;2.08;;;;;;;12.20;100.00;95310.22;5071003;28;20496;-75
2021/07/05 03:28:13;;;;;;;2.53;1.80;;;;;;;12.18;100.00;95307.06;5068967;28;20063;-75
2021/07/05 03:30:41;;;;;;;5.07;2.00;;;;;;;12.12;100.00;95309.03;5060830;28;20321;-75
2021/07/05 03:33:07;;;;;;;3.55;1.98;;;;;;;12.01;100.00;95312.06;5066897;28;20037;-75
2021/07/05 03:35:35;;;;;;;3.85;1.98;;;;;;;11.99;100.00;95311.56;5062855;28;20049;-75
2021/07/05 03:38:01;;;;;;;3.88;1.83;;;;;;;11.97;100.00;95311.84;5061986;28;20444;-75
2021/07/05 03:40:30;;;;;;;5.93;1.95;;;;;;;11.91;100.00;95297.91;5070278;28;20032;-75
2021/07/05 03:42:56;;;;;;;5.53;2.10;;;;;;;11.79;100.00;95308.06;5074328;28;20036;-75
2021/07/05 03:45:25;;;;;;;5.82;2.20;;;;;;;11.80;100.00;95317.53;5065645;28;20041;-75
2021/07/05 03:47:51;;;;;;;3.17;2.15;;;;;;;11.80;100.00;95312.28;5054634;28;20065;-75
2021/07/05 03:50:19;;;;;;;3.30;2.17;;;;;;;11.76;100.00;95316.53;5059013;28;20067;-75
2021/07/05 03:52:46;;;;;;;3.65;2.00;;;;;;;11.74;100.00;95314.19;5066426;28;20072;-75
2021/07/05 03:55:14;;;;;;;2.83;2.00;;;;;;;11.71;100.00;95316.56;5076162;28;20107;-75
2021/07/05 03:57:40;;;;;;;3.25;2.28;;;;;;;11.76;100.00;95316.53;5086871;28;20037;-75
2021/07/05 04:00:10;;;;;;;3.58;2.20;;;;;;;11.77;100.00;95315.47;5074038;28;20036;-75
2021/07/05 04:02:36;;;;;;;4.57;2.47;;;;;;;11.81;100.00;95313.84;5063179;28;20037;-75
2021/07/05 04:05:03;;;;;;;3.28;2.05;;;;;;;11.88;100.00;95324.03;5071158;28;20471;-75
2021/07/05 04:07:29;;;;;;;3.88;2.22;;;;;;;11.93;100.00;95316.88;5075395;28;20067;-75
2021/07/05 04:09:56;;;;;;;4.10;2.10;;;;;;;11.90;100.00;95312.16;5070486;28;20071;-75
2021/07/05 04:12:22;;;;;;;5.47;2.15;;;;;;;11.96;100.00;95316.31;5073227;28;20047;-75
2021/07/05 04:14:49;;;;;;;6.80;2.25;;;;;;;12.02;100.00;95311.00;5065077;28;20036;-75
2021/07/05 04:17:15;;;;;;;6.97;2.13;;;;;;;12.10;100.00;95310.38;5058578;28;20037;-75
2021/07/05 04:19:44;;;;;;;3.58;2.03;;;;;;;12.12;100.00;95313.50;5062878;28;20547;-75
2021/07/05 04:22:10;;;;;;;6.18;2.13;;;;;;;12.13;100.00;95315.06;5074051;28;21895;-75
2021/07/05 04:24:35;;;;;;;3.15;2.13;;;;;;;12.21;100.00;95317.09;5070929;28;20041;-75
2021/07/05 04:27:01;;;;;;;3.10;1.77;;;;;;;12.29;99.79;95319.06;5064162;28;20562;-75
2021/07/05 04:29:26;;;;;;;3.63;1.80;;;;;;;12.39;99.18;95312.09;5070945;28;20036;-75
2021/07/05 04:31:52;;;;;;;4.45;2.00;;;;;;;12.43;98.60;95313.88;5072043;28;20033;-75
2021/07/05 04:34:17;;;;;;;2.78;1.73;;;;;;;12.50;98.83;95308.25;5069684;28;20044;-75
2021/07/05 04:36:43;;;;;;;3.28;2.20;;;;;;;12.52;98.86;95302.69;5070040;28;20052;-75
2021/07/05 04:39:08;;;;;;;2.85;1.90;;;;;;;12.61;98.87;95309.66;5088030;28;20558;-75
2021/07/05 04:41:35;;;;;;;3.15;1.70;;;;;;;12.73;97.63;95311.06;5063935;28;20369;-75
2021/07/05 04:44:01;;;;;;;2.80;1.88;;;;;;;12.77;98.27;95317.34;5064738;28;20071;-75
2021/07/05 04:46:26;;;;;;;4.30;2.03;;;;;;;12.79;98.34;95309.94;5073284;28;20493;-75
2021/07/05 04:48:55;;;;;;;2.47;1.73;;;;;;;12.90;97.98;95316.63;5072791;28;20047;-75
2021/07/05 04:51:23;;;;;;;3.65;1.80;;;;;;;13.04;96.34;95315.88;5060290;28;20119;-75
2021/07/05 04:53:52;;;;;;;3.10;1.70;;;;;;;13.11;96.42;95313.66;5072629;28;20067;-79
2021/07/05 04:56:18;;;;;;;2.60;1.70;;;;;;;13.22;96.21;95306.34;5075241;28;20055;-78
2021/07/05 04:58:44;;;;;;;2.95;1.80;;;;;;;13.31;95.48;95309.88;5075085;28;20429;-79
2021/07/05 05:01:10;;;;;;;4.05;2.03;;;;;;;13.33;97.62;95303.22;5072183;28;20035;-79
2021/07/05 05:03:37;;;;;;;6.32;1.98;;;;;;;13.38;96.79;95298.97;5071790;28;20044;-79
2021/07/05 05:06:03;;;;;;;3.92;2.10;;;;;;;13.46;96.21;95300.91;5076737;28;20115;-79
2021/07/05 05:08:28;;;;;;;3.30;1.70;;;;;;;13.58;94.95;95309.16;5095271;28;20087;-78
2021/07/05 05:10:54;;;;;;;2.90;1.90;;;;;;;13.67;95.63;95290.75;5100830;28;20091;-78
2021/07/05 05:13:19;;;;;;;5.18;1.83;;;;;;;13.75;94.29;95298.00;5080360;28;20040;-78
2021/07/05 05:15:45;;;;;;;3.03;1.65;;;;;;;13.82;95.26;95300.22;5083655;28;20489;-78
2021/07/05 05:18:10;;;;;;;6.03;1.83;;;;;;;13.87;93.60;95294.84;5073417;28;20036;-78
2021/07/05 05:20:36;;;;;;;2.88;1.60;;;;;;;13.99;92.94;95294.34;5078170;28;20041;-77
2021/07/05 05:23:02;;;;;;;5.90;1.92;;;;;;;14.14;93.05;95293.25;5074328;28;20048;-78
2021/07/05 05:25:27;;;;;;;2.40;1.70;;;;;;;14.19;92.83;95296.59;5084819;28;20044;-78
2021/07/05 05:27:54;;;;;;;2.40;1.80;;;;;;;14.24;92.40;95293.03;5100070;28;20044;-78
2021/07/05 05:30:21;;;;;;;3.25;1.60;;;;;;;14.30;92.74;95288.44;5083472;28;20032;-78
2021/07/05 05:32:48;;;;;;;2.45;1.58;;;;;;;14.32;93.00;95288.91;5071312;28;20040;-78
2021/07/05 05:35:17;;;;;;;4.20;1.75;;;;;;;14.36;91.83;95290.63;5080649;28;20086;-78
2021/07/05 05:37:43;;;;;;;3.15;1.40;;;;;;;14.40;91.13;95296.13;5078987;28;20081;-78
2021/07/05 05:40:09;;;;;;;1.73;1.50;;;;;;;14.46;91.16;95289.63;5085277;28;20037;-78
2021/07/05 05:42:35;;;;;;;1.73;1.50;;;;;;;14.54;90.75;95288.16;5081077;28;20047;-78
2021/07/05 05:45:01;;;;;;;2.67;1.55;;;;;;;14.69;88.89;95287.03;5071941;28;20097;-78
2021/07/05 05:47:26;;;;;;;2.88;1.40;;;;;;;14.72;89.04;95287.25;5077343;28;20040;-77
2021/07/05 05:49:52;;;;;;;2.92;1.73;;;;;;;14.76;90.16;95289.28;5073635;28;20037;-78
2021/07/05 05:52:17;;;;;;;1.85;1.40;;;;;;;14.79;88.67;95286.03;5074385;28;20041;-78
2021/07/05 05:54:43;;;;;;;2.88;1.50;;;;;;;14.84;89.06;95288.53;5074132;28;20048;-78
2021/07/05 05:57:24;;;;;;;4.80;1.60;;;;;;;14.85;88.97;95290.13;5079537;28;20074;-78
2021/07/05 05:59:51;;;;;;;2.22;1.40;;;;;;;14.97;87.50;95282.41;5080350;28;20299;-78
2021/07/05 06:02:16;;;;;;;1.40;1.30;;;;;;;15.03;86.92;95286.50;5086106;28;20051;-77
2021/07/05 06:04:42;;;;;;;3.30;1.58;;;;;;;15.15;86.61;95287.81;5074824;28;20048;-77
2021/07/05 06:07:07;;;;;;;1.88;1.48;;;;;;;15.21;88.15;95297.19;5083416;28;20090;-78
2021/07/05 06:09:33;;;;;;;2.10;1.40;;;;;;;15.35;84.58;95297.88;5078699;28;20094;-78
2021/07/05 06:11:58;;;;;;;1.67;1.58;;;;;;;15.40;86.53;95289.81;5086564;28;20036;-78
2021/07/05 06:14:24;;;;;;;1.70;1.40;;;;;;;15.42;84.85;95295.56;5074749;28;20036;-78
2021/07/05 06:16:49;;;;;;;1.83;1.45;;;;;;;15.49;84.27;95286.41;5074388;28;20084;-78
2021/07/05 06:19:15;;;;;;;1.65;1.30;;;;;;;15.58;86.18;95297.84;5070976;28;20037;-78
2021/07/05 06:21:40;;;;;;;3.20;1.40;;;;;;;15.60;85.65;95298.28;5068895;28;20041;-78
2021/07/05 06:24:06;;;;;;;1.83;1.40;;;;;;;15.59;84.73;95307.38;5064321;28;20100;-78
2021/07/05 06:26:31;;;;;;;2.35;1.40;;;;;;;15.75;84.38;95311.16;5076994;28;20044;-78
2021/07/05 06:28:57;;;;;;;3.80;1.50;;;;;;;15.85;84.31;95317.31;5077711;28;20041;-78
2021/07/05 06:31:23;;;;;;;2.03;1.40;;;;;;;15.87;83.96;95312.47;5082841;28;20044;-78
2021/07/05 06:33:49;;;;;;;2.55;1.50;;;;;;;15.96;84.85;95310.66;5092804;28;20506;-78
2021/07/05 06:36:15;;;;;;;2.20;1.40;;;;;;;16.08;82.73;95302.84;5081959;28;20040;-78
2021/07/05 06:38:41;;;;;;;1.92;1.35;;;;;;;16.15;83.24;95304.25;5082692;28;20062;-78
2021/07/05 06:41:07;;;;;;;2.05;1.30;;;;;;;16.29;81.65;95310.22;5076297;28;20071;-78
2021/07/05 06:43:33;;;;;;;5.90;1.60;;;;;;;16.42;82.56;95309.31;5081575;28;20119;-77
2021/07/05 06:45:58;;;;;;;4.28;1.60;;;;;;;16.40;81.20;95310.72;5087017;28;20603;-78
2021/07/05 06:48:24;;;;;;;3.30;1.40;;;;;;;16.49;81.51;95321.34;5074258;28;20406;-78
2021/07/05 06:50:49;;;;;;;1.65;1.30;;;;;;;16.56;82.63;95321.66;5075284;28;20413;-78
2021/07/05 06:53:15;;;;;;;3.13;1.25;;;;;;;16.60;78.52;95317.28;5082864;28;20044;-78
2021/07/05 06:55:40;;;;;;;3.25;1.50;;;;;;;16.61;79.11;95310.91;5076499;28;20066;-78
2021/07/05 06:58:06;;;;;;;2.05;1.45;;;;;;;16.67;81.28;95314.94;5081719;28;20088;-78
2021/07/05 07:00:32;;;;;;;4.55;1.42;;;;;;;16.77;80.02;95317.28;5079422;28;20135;-78
2021/07/05 07:02:58;;;;;;;3.47;1.50;;;;;;;16.92;79.67;95312.63;5079960;28;20041;-78
2021/07/05 07:05:26;;;;;;;3.42;1.50;;;;;;;17.00;78.32;95303.84;5078900;28;20055;-78
2021/07/05 07:07:56;;;;;;;2.03;1.40;;;;;;;17.03;77.37;95295.25;5086216;28;20033;-78
2021/07/05 07:10:23;;;;;;;3.20;1.30;;;;;;;17.13;74.86;95294.91;5072711;28;20101;-78
2021/07/05 07:12:49;;;;;;;1.98;1.15;;;;;;;17.07;76.02;95290.88;5078395;28;20037;-78
2021/07/05 07:15:23;;;;;;;1.83;1.48;;;;;;;17.10;74.22;95298.22;5103492;28;20021;-78
2021/07/05 07:17:53;;;;;;;1.43;1.33;;;;;;;17.05;74.96;95293.06;5083771;28;20033;-78
2021/07/05 07:20:19;;;;;;;1.63;1.40;;;;;;;17.23;74.45;95295.69;5094944;28;20054;-78
2021/07/05 07:22:44;;;;;;;2.78;1.55;;;;;;;17.19;74.84;95297.41;5077126;28;20509;-78
2021/07/05 07:25:12;;;;;;;1.50;1.40;;;;;;;17.25;73.99;95304.13;5082100;28;20040;-79
2021/07/05 07:27:39;;;;;;;3.72;1.50;;;;;;;17.44;72.61;95301.88;5090205;28;20036;-78
2021/07/05 07:30:07;;;;;;;2.22;1.48;;;;;;;17.33;76.29;95289.25;5078254;28;20101;-78
2021/07/05 07:32:32;;;;;;;2.17;1.40;;;;;;;17.47;73.68;95285.28;5086675;28;20495;-79
2021/07/05 07:35:00;;;;;;;3.08;1.40;;;;;;;17.62;72.17;95291.16;5074554;28;20056;-80
2021/07/05 07:37:26;;;;;;;3.30;1.60;;;;;;;17.49;80.01;95293.72;5070398;28;20051;-79
2021/07/05 07:40:00;;;;;;;1.50;1.40;;;;;;;17.65;73.82;95285.22;5071736;28;20041;-80
2021/07/05 07:42:26;;;;;;;2.15;1.40;;;;;;;17.69;75.88;95286.13;5059026;28;20048;-79
2021/07/05 07:44:52;;;;;;;4.10;1.65;;;;;;;17.63;74.57;95276.78;5054615;28;20427;-80
2021/07/05 07:47:17;;;;;;;2.17;1.50;;;;;;;17.79;72.46;95277.78;5069517;28;20038;-77
2021/07/05 07:49:43;;;;;;;1.98;1.50;;;;;;;17.93;72.63;95274.13;5063032;28;20044;-79
2021/07/05 07:52:08;;;;;;;2.92;1.63;;;;;;;17.97;71.44;95264.41;5073152;28;20043;-79
2021/07/05 07:54:34;;;;;;;1.67;1.50;;;;;;;17.96;72.18;95270.84;5056998;28;20120;-79
2021/07/05 07:57:01;;;;;;;1.70;1.50;;;;;;;18.09;71.61;95261.84;5065287;28;20044;-83
2021/07/05 07:59:26;;;;;;;2.22;1.40;;;;;;;18.05;73.14;95252.16;5061141;28;20036;-83
2021/07/05 08:01:52;;;;;;;3.65;1.60;;;;;;;18.14;72.02;95253.63;5063591;28;20126;-81
2021/07/05 08:04:18;;;;;;;3.10;1.40;;;;;;;18.38;68.55;95268.22;5062139;28;20036;-81
2021/07/05 08:06:43;;;;;;;1.73;1.40;;;;;;;18.36;67.69;95265.09;5068735;28;20063;-79
2021/07/05 08:09:09;;;;;;;2.58;1.63;;;;;;;18.30;72.92;95261.06;5070075;28;20041;-83
2021/07/05 08:11:36;;;;;;;2.53;1.52;;;;;;;18.27;70.20;95261.72;5067634;28;20509;-81
2021/07/05 08:14:04;;;;;;;2.35;1.85;;;;;;;18.18;71.30;95253.78;5062429;28;20093;-81
2021/07/05 08:16:30;;;;;;;2.58;1.50;;;;;;;18.42;67.76;95263.81;5069074;28;20091;-79
2021/07/05 08:18:55;;;;;;;1.50;1.40;;;;;;;18.40;70.88;95254.56;5064282;28;20036;-77
2021/07/05 08:21:22;;;;;;;2.35;1.50;;;;;;;18.56;68.32;95268.06;5063092;28;20417;-77
2021/07/05 08:23:48;;;;;;;2.22;1.42;;;;;;;18.69;65.41;95273.13;5072977;28;20037;-77
2021/07/05 08:26:14;;;;;;;1.77;1.40;;;;;;;18.69;68.54;95267.00;5069388;28;20609;-77
2021/07/05 08:28:40;;;;;;;2.47;1.50;;;;;;;18.79;67.21;95266.63;5067583;28;20037;-78
2021/07/05 08:31:07;;;;;;;3.33;1.60;;;;;;;18.79;68.15;95266.63;5087766;28;20062;-79
2021/07/05 08:33:36;;;;;;;3.92;1.70;;;;;;;18.75;68.09;95260.41;5072948;28;20045;-79
2021/07/05 08:36:03;;;;;;;2.28;1.52;;;;;;;18.79;68.11;95255.97;5075047;28;20033;-79
2021/07/05 08:38:29;;;;;;;2.78;1.52;;;;;;;18.66;64.04;95251.69;5075383;28;20045;-79
2021/07/05 08:40:57;;;;;;;2.85;1.60;;;;;;;18.90;70.63;95260.91;5083059;28;20040;-79
2021/07/05 08:43:27;;;;;;;2.88;1.63;;;;;;;18.99;67.29;95264.25;5080119;28;20041;-80
2021/07/05 08:46:01;;;;;;;3.10;1.77;;;;;;;19.04;65.04;95261.41;5090866;28;20037;-80
2021/07/05 08:48:36;;;;;;;2.85;1.80;;;;;;;19.29;67.76;95258.78;5076684;28;20086;-79
2021/07/05 08:51:04;;;;;;;1.85;1.50;;;;;;;19.55;64.06;95253.94;5082499;28;20033;-78
2021/07/05 08:53:30;;;;;;;3.35;1.48;;;;;;;19.79;63.86;95255.06;5083373;28;20402;-79
2021/07/05 08:55:56;;;;;;;2.92;1.50;;;;;;;19.79;62.71;95252.38;5090259;28;20033;-77
2021/07/05 08:58:22;;;;;;;1.75;1.52;;;;;;;19.85;65.19;95256.38;5073743;28;20037;-76
2021/07/05 09:00:48;;;;;;;1.60;1.35;;;;;;;19.95;63.78;95259.72;5082986;28;20033;-77
2021/07/05 09:03:14;;;;;;;2.75;1.65;;;;;;;19.97;66.77;95252.16;5070505;28;20048;-76
2021/07/05 09:05:39;;;;;;;1.80;1.50;;;;;;;20.30;63.60;95251.19;5085934;28;20083;-77
2021/07/05 09:08:08;;;;;;;2.47;1.63;;;;;;;20.36;61.34;95252.53;5066359;28;20401;-78
2021/07/05 09:10:48;;;;;;;3.30;1.50;;;;;;;20.59;62.91;95250.13;5067519;28;20056;-78
2021/07/05 09:13:23;;;;;;;2.22;1.48;;;;;;;20.65;60.83;95258.69;5072551;28;20055;-77
2021/07/05 09:15:50;;;;;;;2.20;1.50;;;;;;;20.78;61.19;95260.22;5070202;28;20428;-77
2021/07/05 09:18:39;;;;;;;1.92;1.60;;;;;;;20.61;62.41;95253.22;5090674;28;20036;-78
2021/07/05 09:21:21;;;;;;;3.38;1.60;;;;;;;20.42;62.29;95261.88;5071620;28;20041;-77
2021/07/05 09:23:47;;;;;;;2.42;1.60;;;;;;;20.14;61.16;95246.59;5083652;28;20037;-77
2021/07/05 09:26:35;;;;;;;3.22;1.40;;;;;;;19.87;61.66;95248.06;5080950;28;20047;-77
2021/07/05 09:29:04;;;;;;;2.88;1.60;;;;;;;20.27;61.14;95243.88;5088589;28;20040;-79
2021/07/05 09:31:34;;;;;;;3.15;1.42;;;;;;;20.43;58.91;95244.72;5068385;28;20114;-81
2021/07/05 09:34:00;;;;;;;2.70;1.50;;;;;;;20.36;61.29;95242.63;5068019;28;20094;-81
2021/07/05 09:36:26;;;;;;;2.58;1.70;;;;;;;20.47;60.15;95237.56;5066797;28;20037;-80
2021/07/05 09:38:52;;;;;;;1.95;1.50;;;;;;;20.62;59.08;95251.34;5065968;28;20032;-80
2021/07/05 09:41:17;;;;;;;3.40;1.48;;;;;;;20.67;59.04;95251.88;5073091;28;20041;-80
2021/07/05 09:43:45;;;;;;;2.50;1.50;;;;;;;20.71;59.13;95252.00;5072239;28;20063;-80
2021/07/05 09:46:12;;;;;;;2.42;1.60;;;;;;;20.84;59.99;95250.81;5072267;28;20044;-80
2021/07/05 09:48:46;;;;;;;1.50;1.40;;;;;;;20.96;57.49;95244.66;5063160;28;20041;-79
2021/07/05 09:51:18;;;;;;;2.42;1.50;;;;;;;20.88;60.56;95241.00;5065144;28;20559;-82
2021/07/05 09:53:44;;;;;;;2.47;1.60;;;;;;;21.04;55.59;95237.59;5066262;28;20155;-81
2021/07/05 09:56:17;;;;;;;2.65;1.50;;;;;;;20.96;56.65;95241.19;5070013;28;20037;-80
2021/07/05 09:58:43;;;;;;;2.15;1.48;;;;;;;20.96;57.48;95246.53;5066281;28;20049;-82
2021/07/05 10:01:09;;;;;;;2.47;1.60;;;;;;;20.93;56.80;95245.31;5071256;28;20047;-80
2021/07/05 10:03:39;;;;;;;1.88;1.58;;;;;;;21.04;65.31;95240.25;5081471;28;20045;-81
2021/07/05 10:06:16;;;;;;;2.42;1.70;;;;;;;21.46;55.69;95237.09;5061917;28;20494;-81
2021/07/05 10:08:42;;;;;;;1.70;1.50;;;;;;;21.59;55.53;95240.47;5062636;28;20060;-81
2021/07/05 10:11:08;;;;;;;2.13;1.52;;;;;;;21.56;54.85;95249.97;5081297;28;20549;-81
2021/07/05 10:13:34;;;;;;;1.90;1.50;;;;;;;21.69;55.11;95244.53;5061592;28;20049;-81
2021/07/05 10:16:06;;;;;;;2.13;1.40;;;;;;;21.84;57.10;95251.78;5064828;28;20048;-81
2021/07/05 10:18:32;;;;;;;2.28;1.70;;;;;;;21.69;54.51;95255.25;5077943;28;20041;-81
2021/07/05 10:20:58;;;;;;;3.40;1.50;;;;;;;21.86;55.10;95254.88;5085115;28;20049;-81
2021/07/05 10:23:24;;;;;;;1.95;1.70;;;;;;;21.91;55.69;95251.94;5064857;28;20055;-81
2021/07/05 10:25:51;;;;;;;1.95;1.70;;;;;;;21.93;55.34;95252.34;5061455;28;20040;-81
2021/07/05 10:28:17;;;;;;;2.33;1.60;;;;;;;22.11;58.11;95249.28;5059920;28;20037;-82
2021/07/05 10:30:45;;;;;;;2.70;1.70;;;;;;;22.41;53.86;95243.44;5054004;28;20511;-81
2021/07/05 10:33:11;;;;;;;2.88;1.55;;;;;;;22.50;52.24;95249.38;5060945;28;20697;-81
2021/07/05 10:35:40;;;;;;;2.42;1.55;;;;;;;22.55;54.17;95251.00;5071775;28;20041;-81
2021/07/05 10:38:11;;;;;;;2.25;1.58;;;;;;;22.62;54.66;95245.78;5067333;28;20078;-79
2021/07/05 10:40:42;;;;;;;2.33;1.50;;;;;;;22.29;51.69;95255.81;5064681;28;20037;-81
2021/07/05 10:43:11;;;;;;;2.78;1.60;;;;;;;22.42;53.70;95242.31;5067293;28;20119;-77
2021/07/05 10:45:43;;;;;;;3.45;1.80;;;;;;;22.54;51.89;95260.97;5066996;28;20502;-76
2021/07/05 10:48:40;;;;;;;4.07;1.60;;;;;;;22.51;56.81;95256.28;5070221;28;20059;-77
2021/07/05 10:51:08;;;;;;;1.20;1.10;;;;;;;22.57;48.48;95249.53;5063735;28;20510;-76
2021/07/05 10:53:46;;;;;;;3.58;1.60;;;;;;;22.53;49.50;95248.66;5067350;28;20055;-78
2021/07/05 10:56:31;;;;;;;2.63;1.63;;;;;;;22.47;49.53;95255.44;5077195;28;20403;-76
2021/07/05 10:59:17;;;;;;;2.28;1.50;;;;;;;22.58;50.64;95250.28;5061636;28;20041;-77
2021/07/05 11:01:47;;;;;;;1.40;1.30;;;;;;;22.37;49.26;95250.63;5068167;28;20059;-78
2021/07/05 11:04:22;;;;;;;2.30;1.50;;;;;;;22.30;51.95;95257.38;5055434;28;20384;-76
2021/07/05 11:06:49;;;;;;;2.00;1.50;;;;;;;22.48;51.81;95246.25;5052117;28;20037;-78
2021/07/05 11:09:23;;;;;;;2.80;1.60;;;;;;;22.51;51.06;95245.56;5059501;28;20045;-78
2021/07/05 11:11:55;;;;;;;2.75;1.60;;;;;;;22.96;49.77;95254.84;5067847;28;20048;-78
2021/07/05 11:14:24;;;;;;;2.13;1.58;;;;;;;22.91;49.87;95251.69;5069606;28;20041;-77
2021/07/05 11:16:52;;;;;;;2.50;1.60;;;;;;;22.84;51.46;95252.31;5076271;28;20036;-77
2021/07/05 11:19:46;;;;;;;2.70;1.52;;;;;;;22.59;50.99;95252.63;5060561;28;20468;-77
2021/07/05 11:22:18;;;;;;;2.53;1.83;;;;;;;22.94;53.09;95256.34;5063421;28;20044;-75
2021/07/05 11:25:03;;;;;;;2.25;1.60;;;;;;;23.09;50.45;95250.09;5064035;28;20048;-81
2021/07/05 11:27:31;;;;;;;4.13;1.50;;;;;;;23.05;49.63;95251.19;5064512;28;20052;-80
2021/07/05 11:30:11;;;;;;;3.13;1.80;;;;;;;22.78;50.31;95248.38;5082636;28;20131;-82
2021/07/05 11:32:39;;;;;;;1.98;1.55;;;;;;;22.31;51.16;95237.47;5078200;28;20060;-82